PWSweather.com
Personal Weather Stations
Station Observations
BAYPARK
Bay Park, Ny, East Rockaway, NY 11518

Bay Park, NyEast Rockaway, NY 11518

Lat: 40.6310098, Lon: -73.6727287

Elevation: 11

Station Type: AcuRite Pro

https://www.awekas.at/en/instrument.php?id=14894

High Low Average
Temperature 78.9°F26.1°C 64.2°F17.9°C 70.8°F21.6°C
Dew Point 69.3°F20.7°C 63.9°F17.7°C 67.1°F19.5°C
Winds 3.5 mph 5.6 kmh Calm Calm 1.0 mph SW1.6 kmh SW
Wind Gusts 6.8 mph10.9 kmh -- 2.0 mph3.2 kmh
Humidity 99% 71% 89%
Pressure 30.41 in1029.8 mb 30.29 in1025.7 mb -
Precipitation 0.76 in19.3 mm - -
Hour Temp Dew Point Humidity Winds Wind Gusts Pressure Precip Precip Rate Daily Precip Total
12:00 AM 65.1°F18.4°C 64.4°F18.0°C 98% Calm Calm -- 30.32 in1026.8 mb 0.00 in0.0 mm 0.00 in0.0 mm 0.00 in0.0 mm
12:05 AM 65.0°F18.3°C 64.2°F17.9°C 97% Calm Calm -- 30.32 in1026.8 mb 0.00 in0.0 mm 0.00 in0.0 mm 0.00 in0.0 mm
12:10 AM 64.9°F18.3°C 64.0°F17.8°C 97% Calm Calm -- 30.32 in1026.8 mb 0.00 in0.0 mm 0.00 in0.0 mm 0.00 in0.0 mm
12:15 AM 64.9°F18.3°C 64.1°F17.8°C 97% Calm Calm -- 30.32 in1026.8 mb 0.00 in0.0 mm 0.00 in0.0 mm 0.00 in0.0 mm
12:20 AM 64.9°F18.3°C 64.3°F17.9°C 98% Calm Calm -- 30.32 in1026.8 mb 0.00 in0.0 mm 0.00 in0.0 mm 0.00 in0.0 mm
12:25 AM 64.9°F18.3°C 64.3°F17.9°C 98% Calm Calm -- 30.32 in1026.8 mb 0.00 in0.0 mm 0.00 in0.0 mm 0.00 in0.0 mm
12:30 AM 64.9°F18.3°C 64.3°F17.9°C 98% Calm Calm -- 30.32 in1026.8 mb 0.00 in0.0 mm 0.00 in0.0 mm 0.00 in0.0 mm
12:35 AM 64.8°F18.2°C 64.2°F17.9°C 98% Calm Calm -- 30.32 in1026.8 mb 0.00 in0.0 mm 0.00 in0.0 mm 0.00 in0.0 mm
12:40 AM 64.8°F18.2°C 64.2°F17.9°C 98% Calm Calm -- 30.32 in1026.8 mb 0.00 in0.0 mm 0.00 in0.0 mm 0.00 in0.0 mm
12:45 AM 64.8°F18.2°C 64.2°F17.9°C 98% Calm Calm -- 30.32 in1026.8 mb 0.00 in0.0 mm 0.00 in0.0 mm 0.00 in0.0 mm
12:50 AM 64.8°F18.2°C 64.2°F17.9°C 98% Calm Calm -- 30.32 in1026.8 mb 0.00 in0.0 mm 0.00 in0.0 mm 0.00 in0.0 mm
12:55 AM 64.8°F18.2°C 64.2°F17.9°C 98% Calm Calm -- 30.32 in1026.8 mb 0.00 in0.0 mm 0.00 in0.0 mm 0.00 in0.0 mm
01:00 AM 64.8°F18.2°C 64.2°F17.9°C 98% Calm Calm -- 30.32 in1026.8 mb 0.00 in0.0 mm 0.00 in0.0 mm 0.00 in0.0 mm
01:05 AM 64.8°F18.2°C 64.2°F17.9°C 98% Calm Calm -- 30.32 in1026.8 mb 0.00 in0.0 mm 0.00 in0.0 mm 0.00 in0.0 mm
01:10 AM 64.8°F18.2°C 64.2°F17.9°C 98% Calm Calm -- 30.32 in1026.8 mb 0.00 in0.0 mm 0.00 in0.0 mm 0.00 in0.0 mm
01:15 AM 64.8°F18.2°C 64.5°F18.1°C 99% Calm Calm -- 30.32 in1026.8 mb 0.00 in0.0 mm 0.00 in0.0 mm 0.00 in0.0 mm
01:20 AM 64.8°F18.2°C 64.5°F18.1°C 99% Calm Calm -- 30.32 in1026.8 mb 0.00 in0.0 mm 0.00 in0.0 mm 0.00 in0.0 mm
01:25 AM 64.8°F18.2°C 64.6°F18.1°C 99% Calm Calm -- 30.32 in1026.8 mb 0.00 in0.0 mm 0.00 in0.0 mm 0.00 in0.0 mm
01:30 AM 64.8°F18.2°C 64.5°F18.1°C 99% Calm Calm -- 30.33 in1027.1 mb 0.00 in0.0 mm 0.00 in0.0 mm 0.00 in0.0 mm
01:35 AM 64.7°F18.2°C 64.5°F18.1°C 99% Calm Calm -- 30.33 in1027.1 mb 0.00 in0.0 mm 0.00 in0.0 mm 0.00 in0.0 mm
01:40 AM 64.6°F18.1°C 64.3°F17.9°C 99% Calm Calm -- 30.33 in1027.1 mb 0.00 in0.0 mm 0.00 in0.0 mm 0.00 in0.0 mm
01:45 AM 64.5°F18.1°C 64.2°F17.9°C 99% Calm Calm -- 30.33 in1027.1 mb 0.00 in0.0 mm 0.00 in0.0 mm 0.00 in0.0 mm
01:50 AM 64.4°F18.0°C 64.1°F17.8°C 99% Calm Calm -- 30.33 in1027.1 mb 0.00 in0.0 mm 0.00 in0.0 mm 0.00 in0.0 mm
01:55 AM 64.4°F18.0°C 64.1°F17.8°C 99% Calm Calm -- 30.33 in1027.1 mb 0.00 in0.0 mm 0.00 in0.0 mm 0.00 in0.0 mm
02:00 AM 64.4°F18.0°C 64.1°F17.8°C 99% Calm Calm -- 30.33 in1027.1 mb 0.00 in0.0 mm 0.00 in0.0 mm 0.00 in0.0 mm
02:05 AM 64.6°F18.1°C 64.3°F17.9°C 99% Calm Calm -- 30.33 in1027.1 mb 0.00 in0.0 mm 0.00 in0.0 mm 0.00 in0.0 mm
02:10 AM 64.6°F18.1°C 64.3°F17.9°C 99% Calm Calm -- 30.33 in1027.1 mb 0.00 in0.0 mm 0.00 in0.0 mm 0.00 in0.0 mm
02:15 AM 64.8°F18.2°C 64.5°F18.1°C 99% Calm Calm -- 30.33 in1027.1 mb 0.00 in0.0 mm 0.00 in0.0 mm 0.00 in0.0 mm
02:20 AM 64.8°F18.2°C 64.6°F18.1°C 99% Calm Calm -- 30.33 in1027.1 mb 0.00 in0.0 mm 0.00 in0.0 mm 0.00 in0.0 mm
02:25 AM 64.9°F18.3°C 64.6°F18.1°C 99% Calm Calm -- 30.33 in1027.1 mb 0.00 in0.0 mm 0.00 in0.0 mm 0.00 in0.0 mm
02:30 AM 65.0°F18.3°C 64.7°F18.2°C 99% Calm Calm -- 30.33 in1027.1 mb 0.00 in0.0 mm 0.00 in0.0 mm 0.00 in0.0 mm
02:35 AM 65.3°F18.5°C 65.0°F18.3°C 99% Calm Calm -- 30.33 in1027.1 mb 0.00 in0.0 mm 0.00 in0.0 mm 0.00 in0.0 mm
02:40 AM 65.3°F18.5°C 65.0°F18.3°C 99% Calm Calm -- 30.33 in1027.1 mb 0.00 in0.0 mm 0.00 in0.0 mm 0.00 in0.0 mm
02:45 AM 65.5°F18.6°C 65.2°F18.4°C 99% Calm Calm -- 30.33 in1027.1 mb 0.00 in0.0 mm 0.00 in0.0 mm 0.00 in0.0 mm
02:50 AM 65.6°F18.7°C 65.3°F18.5°C 99% Calm Calm -- 30.33 in1027.1 mb 0.00 in0.0 mm 0.00 in0.0 mm 0.00 in0.0 mm
02:55 AM 65.7°F18.7°C 65.4°F18.6°C 99% Calm Calm -- 30.33 in1027.1 mb 0.00 in0.0 mm 0.00 in0.0 mm 0.00 in0.0 mm
03:00 AM 65.8°F18.8°C 65.5°F18.6°C 99% Calm Calm -- 30.33 in1027.1 mb 0.00 in0.0 mm 0.00 in0.0 mm 0.00 in0.0 mm
03:05 AM 65.8°F18.8°C 65.5°F18.6°C 99% Calm Calm -- 30.33 in1027.1 mb 0.00 in0.0 mm 0.00 in0.0 mm 0.00 in0.0 mm
03:10 AM 65.8°F18.8°C 65.5°F18.6°C 99% Calm Calm -- 30.33 in1027.1 mb 0.00 in0.0 mm 0.00 in0.0 mm 0.00 in0.0 mm
03:15 AM 65.9°F18.8°C 65.6°F18.7°C 99% Calm Calm -- 30.33 in1027.1 mb 0.00 in0.0 mm 0.00 in0.0 mm 0.00 in0.0 mm
03:20 AM 66.2°F19.0°C 65.9°F18.8°C 99% Calm Calm -- 30.33 in1027.1 mb 0.00 in0.0 mm 0.00 in0.0 mm 0.00 in0.0 mm
03:25 AM 66.3°F19.1°C 66.0°F18.9°C 99% Calm Calm -- 30.33 in1027.1 mb 0.00 in0.0 mm 0.00 in0.0 mm 0.00 in0.0 mm
03:30 AM 66.4°F19.1°C 66.1°F18.9°C 99% Calm Calm -- 30.33 in1027.1 mb 0.00 in0.0 mm 0.00 in0.0 mm 0.00 in0.0 mm
03:35 AM 66.4°F19.1°C 66.1°F18.9°C 99% Calm Calm -- 30.33 in1027.1 mb 0.00 in0.0 mm 0.00 in0.0 mm 0.00 in0.0 mm
03:40 AM 66.4°F19.1°C 66.1°F18.9°C 99% Calm Calm -- 30.33 in1027.1 mb 0.00 in0.0 mm 0.00 in0.0 mm 0.00 in0.0 mm
03:45 AM 66.2°F19.0°C 65.9°F18.8°C 99% Calm Calm -- 30.33 in1027.1 mb 0.00 in0.0 mm 0.00 in0.0 mm 0.00 in0.0 mm
03:50 AM 66.0°F18.9°C 65.7°F18.7°C 99% Calm Calm -- 30.33 in1027.1 mb 0.00 in0.0 mm 0.00 in0.0 mm 0.00 in0.0 mm
03:55 AM 65.8°F18.8°C 65.5°F18.6°C 99% Calm Calm -- 30.33 in1027.1 mb 0.00 in0.0 mm 0.00 in0.0 mm 0.00 in0.0 mm
04:00 AM 65.7°F18.7°C 65.4°F18.6°C 99% Calm Calm -- 30.33 in1027.1 mb 0.00 in0.0 mm 0.00 in0.0 mm 0.00 in0.0 mm
04:05 AM 65.5°F18.6°C 65.2°F18.4°C 99% Calm Calm -- 30.34 in1027.4 mb 0.00 in0.0 mm 0.00 in0.0 mm 0.00 in0.0 mm
04:10 AM 65.4°F18.6°C 65.1°F18.4°C 99% Calm Calm -- 30.34 in1027.4 mb 0.00 in0.0 mm 0.00 in0.0 mm 0.00 in0.0 mm
04:15 AM 65.3°F18.5°C 65.0°F18.3°C 99% Calm Calm -- 30.34 in1027.4 mb 0.00 in0.0 mm 0.00 in0.0 mm 0.00 in0.0 mm
04:20 AM 65.1°F18.4°C 64.8°F18.2°C 99% Calm Calm -- 30.34 in1027.4 mb 0.00 in0.0 mm 0.00 in0.0 mm 0.00 in0.0 mm
04:25 AM 65.0°F18.3°C 64.8°F18.2°C 99% Calm Calm -- 30.34 in1027.4 mb 0.00 in0.0 mm 0.00 in0.0 mm 0.00 in0.0 mm
04:30 AM 64.9°F18.3°C 64.6°F18.1°C 99% Calm Calm -- 30.34 in1027.4 mb 0.00 in0.0 mm 0.00 in0.0 mm 0.00 in0.0 mm
04:35 AM 64.8°F18.2°C 64.5°F18.1°C 99% Calm Calm -- 30.34 in1027.4 mb 0.00 in0.0 mm 0.00 in0.0 mm 0.00 in0.0 mm
04:40 AM 64.8°F18.2°C 64.5°F18.1°C 99% Calm Calm -- 30.35 in1027.8 mb 0.00 in0.0 mm 0.00 in0.0 mm 0.00 in0.0 mm
04:45 AM 64.6°F18.1°C 64.3°F17.9°C 99% Calm Calm -- 30.35 in1027.8 mb 0.00 in0.0 mm 0.00 in0.0 mm 0.00 in0.0 mm
04:50 AM 64.6°F18.1°C 64.3°F17.9°C 99% Calm Calm -- 30.35 in1027.8 mb 0.00 in0.0 mm 0.00 in0.0 mm 0.00 in0.0 mm
04:55 AM 64.6°F18.1°C 64.3°F17.9°C 99% Calm Calm -- 30.35 in1027.8 mb 0.00 in0.0 mm 0.00 in0.0 mm 0.00 in0.0 mm
05:00 AM 64.4°F18.0°C 64.1°F17.8°C 99% Calm Calm -- 30.35 in1027.8 mb 0.00 in0.0 mm 0.00 in0.0 mm 0.00 in0.0 mm
05:05 AM 64.4°F18.0°C 64.1°F17.8°C 99% Calm Calm -- 30.36 in1028.1 mb 0.00 in0.0 mm 0.00 in0.0 mm 0.00 in0.0 mm
05:10 AM 64.4°F18.0°C 64.1°F17.8°C 99% Calm Calm -- 30.36 in1028.1 mb 0.00 in0.0 mm 0.00 in0.0 mm 0.00 in0.0 mm
05:15 AM 64.3°F17.9°C 64.0°F17.8°C 99% Calm Calm -- 30.36 in1028.1 mb 0.00 in0.0 mm 0.00 in0.0 mm 0.00 in0.0 mm
05:20 AM 64.2°F17.9°C 63.9°F17.7°C 99% Calm Calm -- 30.36 in1028.1 mb 0.00 in0.0 mm 0.00 in0.0 mm 0.00 in0.0 mm
05:25 AM 64.2°F17.9°C 63.9°F17.7°C 99% Calm Calm -- 30.36 in1028.1 mb 0.00 in0.0 mm 0.00 in0.0 mm 0.00 in0.0 mm
05:30 AM 64.2°F17.9°C 63.9°F17.7°C 99% Calm Calm -- 30.36 in1028.1 mb 0.00 in0.0 mm 0.00 in0.0 mm 0.00 in0.0 mm
05:35 AM 64.2°F17.9°C 63.9°F17.7°C 99% Calm Calm -- 30.36 in1028.1 mb 0.00 in0.0 mm 0.00 in0.0 mm 0.00 in0.0 mm
05:40 AM 64.2°F17.9°C 63.9°F17.7°C 99% Calm Calm -- 30.36 in1028.1 mb 0.00 in0.0 mm 0.00 in0.0 mm 0.00 in0.0 mm
05:45 AM 64.2°F17.9°C 63.9°F17.7°C 99% Calm Calm -- 30.36 in1028.1 mb 0.00 in0.0 mm 0.00 in0.0 mm 0.00 in0.0 mm
05:50 AM 64.2°F17.9°C 63.9°F17.7°C 99% Calm Calm -- 30.36 in1028.1 mb 0.00 in0.0 mm 0.00 in0.0 mm 0.00 in0.0 mm
05:55 AM 64.4°F18.0°C 64.1°F17.8°C 99% Calm Calm -- 30.36 in1028.1 mb 0.00 in0.0 mm 0.00 in0.0 mm 0.00 in0.0 mm
06:00 AM 64.6°F18.1°C 64.3°F17.9°C 99% Calm Calm -- 30.36 in1028.1 mb 0.00 in0.0 mm 0.00 in0.0 mm 0.00 in0.0 mm
06:05 AM 64.7°F18.2°C 64.5°F18.1°C 99% Calm Calm -- 30.37 in1028.4 mb 0.00 in0.0 mm 0.00 in0.0 mm 0.00 in0.0 mm
06:10 AM 64.9°F18.3°C 64.6°F18.1°C 99% Calm Calm -- 30.37 in1028.4 mb 0.00 in0.0 mm 0.00 in0.0 mm 0.00 in0.0 mm
06:15 AM 65.4°F18.6°C 65.2°F18.4°C 99% Calm Calm -- 30.38 in1028.8 mb 0.00 in0.0 mm 0.00 in0.0 mm 0.00 in0.0 mm
06:20 AM 65.7°F18.7°C 65.4°F18.6°C 99% Calm Calm -- 30.38 in1028.8 mb 0.00 in0.0 mm 0.00 in0.0 mm 0.00 in0.0 mm
06:25 AM 66.0°F18.9°C 65.8°F18.8°C 99% Calm Calm -- 30.38 in1028.8 mb 0.00 in0.0 mm 0.00 in0.0 mm 0.00 in0.0 mm
06:30 AM 66.3°F19.1°C 66.0°F18.9°C 99% Calm Calm -- 30.38 in1028.8 mb 0.00 in0.0 mm 0.00 in0.0 mm 0.00 in0.0 mm
06:35 AM 66.4°F19.1°C 66.1°F18.9°C 99% Calm Calm -- 30.38 in1028.8 mb 0.00 in0.0 mm 0.00 in0.0 mm 0.00 in0.0 mm
06:40 AM 66.4°F19.1°C 66.1°F18.9°C 99% Calm Calm -- 30.39 in1029.1 mb 0.00 in0.0 mm 0.00 in0.0 mm 0.00 in0.0 mm
06:45 AM 66.6°F19.2°C 66.3°F19.1°C 99% Calm Calm -- 30.39 in1029.1 mb 0.00 in0.0 mm 0.00 in0.0 mm 0.00 in0.0 mm
06:50 AM 66.6°F19.2°C 66.3°F19.1°C 99% Calm Calm -- 30.38 in1028.8 mb 0.00 in0.0 mm 0.00 in0.0 mm 0.00 in0.0 mm
06:55 AM 66.7°F19.3°C 66.4°F19.1°C 99% Calm Calm -- 30.38 in1028.8 mb 0.00 in0.0 mm 0.00 in0.0 mm 0.00 in0.0 mm
07:00 AM 66.9°F19.4°C 66.6°F19.2°C 99% Calm Calm -- 30.38 in1028.8 mb 0.00 in0.0 mm 0.00 in0.0 mm 0.00 in0.0 mm
07:05 AM 67.1°F19.5°C 66.8°F19.3°C 99% Calm Calm -- 30.39 in1029.1 mb 0.00 in0.0 mm 0.00 in0.0 mm 0.00 in0.0 mm
07:10 AM 67.3°F19.6°C 67.0°F19.4°C 99% Calm Calm -- 30.39 in1029.1 mb 0.00 in0.0 mm 0.00 in0.0 mm 0.00 in0.0 mm
07:15 AM 67.4°F19.7°C 67.1°F19.5°C 99% Calm Calm -- 30.39 in1029.1 mb 0.00 in0.0 mm 0.00 in0.0 mm 0.00 in0.0 mm
07:20 AM 67.5°F19.7°C 67.2°F19.6°C 99% Calm Calm -- 30.39 in1029.1 mb 0.00 in0.0 mm 0.00 in0.0 mm 0.00 in0.0 mm
07:25 AM 67.6°F19.8°C 67.3°F19.6°C 99% Calm Calm -- 30.39 in1029.1 mb 0.00 in0.0 mm 0.00 in0.0 mm 0.00 in0.0 mm
07:30 AM 67.8°F19.9°C 67.5°F19.7°C 99% Calm Calm -- 30.39 in1029.1 mb 0.00 in0.0 mm 0.00 in0.0 mm 0.00 in0.0 mm
07:35 AM 68.1°F20.1°C 67.8°F19.9°C 99% Calm Calm -- 30.39 in1029.1 mb 0.00 in0.0 mm 0.00 in0.0 mm 0.00 in0.0 mm
07:40 AM 68.3°F20.2°C 68.0°F20.0°C 99% Calm Calm -- 30.39 in1029.1 mb 0.00 in0.0 mm 0.00 in0.0 mm 0.00 in0.0 mm
07:45 AM 68.5°F20.3°C 68.2°F20.1°C 99% Calm Calm -- 30.39 in1029.1 mb 0.00 in0.0 mm 0.00 in0.0 mm 0.00 in0.0 mm
07:50 AM 68.9°F20.5°C 68.6°F20.3°C 99% 0.5 mph S0.8 kmh S 1.7 mph2.7 kmh 30.39 in1029.1 mb 0.00 in0.0 mm 0.00 in0.0 mm 0.00 in0.0 mm
07:55 AM 69.2°F20.7°C 68.6°F20.3°C 98% 0.6 mph S1.0 kmh S 2.2 mph3.5 kmh 30.39 in1029.1 mb 0.00 in0.0 mm 0.00 in0.0 mm 0.00 in0.0 mm
08:00 AM 69.5°F20.8°C 68.7°F20.4°C 97% Calm Calm -- 30.39 in1029.1 mb 0.00 in0.0 mm 0.00 in0.0 mm 0.00 in0.0 mm
08:05 AM 69.7°F20.9°C 68.9°F20.5°C 97% Calm Calm -- 30.40 in1029.5 mb 0.00 in0.0 mm 0.00 in0.0 mm 0.00 in0.0 mm
08:10 AM 69.9°F21.1°C 69.2°F20.7°C 98% Calm Calm -- 30.40 in1029.5 mb 0.00 in0.0 mm 0.00 in0.0 mm 0.00 in0.0 mm
08:15 AM 70.3°F21.3°C 69.1°F20.6°C 96% Calm Calm -- 30.40 in1029.5 mb 0.00 in0.0 mm 0.00 in0.0 mm 0.00 in0.0 mm
08:20 AM 70.6°F21.4°C 69.1°F20.6°C 95% Calm Calm -- 30.40 in1029.5 mb 0.00 in0.0 mm 0.00 in0.0 mm 0.00 in0.0 mm
08:25 AM 70.8°F21.6°C 69.2°F20.7°C 95% Calm Calm -- 30.40 in1029.5 mb 0.00 in0.0 mm 0.00 in0.0 mm 0.00 in0.0 mm
08:30 AM 70.9°F21.6°C 68.8°F20.4°C 93% Calm Calm -- 30.41 in1029.8 mb 0.00 in0.0 mm 0.00 in0.0 mm 0.00 in0.0 mm
08:35 AM 71.1°F21.7°C 69.0°F20.6°C 93% 0.4 mph S0.6 kmh S 2.2 mph3.5 kmh 30.41 in1029.8 mb 0.00 in0.0 mm 0.00 in0.0 mm 0.00 in0.0 mm
08:40 AM 71.2°F21.8°C 69.1°F20.6°C 93% 0.5 mph SSE0.8 kmh SSE 2.2 mph3.5 kmh 30.40 in1029.5 mb 0.00 in0.0 mm 0.00 in0.0 mm 0.00 in0.0 mm
08:45 AM 71.3°F21.8°C 69.1°F20.6°C 93% Calm Calm -- 30.40 in1029.5 mb 0.00 in0.0 mm 0.00 in0.0 mm 0.00 in0.0 mm
08:50 AM 71.4°F21.9°C 69.2°F20.7°C 93% 1.7 mph S2.7 kmh S 2.7 mph4.3 kmh 30.40 in1029.5 mb 0.00 in0.0 mm 0.00 in0.0 mm 0.00 in0.0 mm
08:55 AM 71.6°F22.0°C 69.2°F20.7°C 92% 2.0 mph SE3.2 kmh SE 3.7 mph6.0 kmh 30.40 in1029.5 mb 0.00 in0.0 mm 0.00 in0.0 mm 0.00 in0.0 mm
09:00 AM 71.9°F22.2°C 69.3°F20.7°C 92% 0.9 mph SSE1.4 kmh SSE 2.7 mph4.3 kmh 30.40 in1029.5 mb 0.00 in0.0 mm 0.00 in0.0 mm 0.00 in0.0 mm
09:05 AM 72.0°F22.2°C 69.3°F20.7°C 91% 0.2 mph SSW0.3 kmh SSW 1.7 mph2.7 kmh 30.40 in1029.5 mb 0.00 in0.0 mm 0.00 in0.0 mm 0.00 in0.0 mm
09:10 AM 72.1°F22.3°C 69.2°F20.7°C 91% Calm Calm -- 30.40 in1029.5 mb 0.00 in0.0 mm 0.00 in0.0 mm 0.00 in0.0 mm
09:15 AM 72.4°F22.4°C 69.3°F20.7°C 90% Calm Calm -- 30.40 in1029.5 mb 0.00 in0.0 mm 0.00 in0.0 mm 0.00 in0.0 mm
09:20 AM 72.6°F22.6°C 69.2°F20.7°C 89% Calm Calm -- 30.40 in1029.5 mb 0.00 in0.0 mm 0.00 in0.0 mm 0.00 in0.0 mm
09:25 AM 72.8°F22.7°C 69.3°F20.7°C 89% Calm Calm -- 30.40 in1029.5 mb 0.00 in0.0 mm 0.00 in0.0 mm 0.00 in0.0 mm
09:30 AM 72.9°F22.7°C 68.8°F20.4°C 87% Calm Calm -- 30.40 in1029.5 mb 0.00 in0.0 mm 0.00 in0.0 mm 0.00 in0.0 mm
09:35 AM 73.0°F22.8°C 68.9°F20.5°C 87% Calm Calm -- 30.40 in1029.5 mb 0.00 in0.0 mm 0.00 in0.0 mm 0.00 in0.0 mm
09:40 AM 73.3°F22.9°C 68.8°F20.4°C 86% Calm Calm -- 30.40 in1029.5 mb 0.00 in0.0 mm 0.00 in0.0 mm 0.00 in0.0 mm
09:45 AM 73.6°F23.1°C 68.9°F20.5°C 85% 0.3 mph WSW0.5 kmh WSW 2.7 mph4.3 kmh 30.40 in1029.5 mb 0.00 in0.0 mm 0.00 in0.0 mm 0.00 in0.0 mm
09:50 AM 73.8°F23.2°C 68.9°F20.5°C 85% Calm Calm -- 30.40 in1029.5 mb 0.00 in0.0 mm 0.00 in0.0 mm 0.00 in0.0 mm
09:55 AM 73.9°F23.3°C 68.5°F20.3°C 83% Calm Calm -- 30.40 in1029.5 mb 0.00 in0.0 mm 0.00 in0.0 mm 0.00 in0.0 mm
10:00 AM 74.1°F23.4°C 68.6°F20.3°C 83% 0.8 mph S1.3 kmh S 2.2 mph3.5 kmh 30.40 in1029.5 mb 0.00 in0.0 mm 0.00 in0.0 mm 0.00 in0.0 mm
10:05 AM 74.2°F23.4°C 68.7°F20.4°C 83% 1.4 mph S2.3 kmh S 2.7 mph4.3 kmh 30.40 in1029.5 mb 0.00 in0.0 mm 0.00 in0.0 mm 0.00 in0.0 mm
10:10 AM 74.7°F23.7°C 68.5°F20.3°C 81% 0.8 mph SSE1.3 kmh SSE 2.2 mph3.5 kmh 30.40 in1029.5 mb 0.00 in0.0 mm 0.00 in0.0 mm 0.00 in0.0 mm
10:15 AM 75.4°F24.1°C 68.7°F20.4°C 80% Calm Calm -- 30.40 in1029.5 mb 0.00 in0.0 mm 0.00 in0.0 mm 0.00 in0.0 mm
10:20 AM 75.6°F24.2°C 68.6°F20.3°C 79% Calm Calm -- 30.40 in1029.5 mb 0.00 in0.0 mm 0.00 in0.0 mm 0.00 in0.0 mm
10:25 AM 75.6°F24.2°C 68.3°F20.2°C 78% 0.6 mph SW1.0 kmh SW 1.7 mph2.7 kmh 30.40 in1029.5 mb 0.00 in0.0 mm 0.00 in0.0 mm 0.00 in0.0 mm
10:30 AM 75.8°F24.3°C 68.4°F20.2°C 78% Calm Calm -- 30.40 in1029.5 mb 0.00 in0.0 mm 0.00 in0.0 mm 0.00 in0.0 mm
10:35 AM 76.2°F24.6°C 68.4°F20.2°C 77% Calm Calm -- 30.40 in1029.5 mb 0.00 in0.0 mm 0.00 in0.0 mm 0.00 in0.0 mm
10:40 AM 76.9°F24.9°C 68.4°F20.2°C 75% 0.4 mph SW0.6 kmh SW 2.7 mph4.3 kmh 30.40 in1029.5 mb 0.00 in0.0 mm 0.00 in0.0 mm 0.00 in0.0 mm
10:45 AM 77.4°F25.2°C 68.1°F20.1°C 73% 1.7 mph SSE2.7 kmh SSE 2.7 mph4.3 kmh 30.40 in1029.5 mb 0.00 in0.0 mm 0.00 in0.0 mm 0.00 in0.0 mm
10:50 AM 77.5°F25.3°C 68.1°F20.1°C 73% 1.8 mph SW2.9 kmh SW 2.7 mph4.3 kmh 30.40 in1029.5 mb 0.00 in0.0 mm 0.00 in0.0 mm 0.00 in0.0 mm
10:55 AM 77.8°F25.4°C 67.9°F19.9°C 72% 1.2 mph WNW1.9 kmh WNW 2.7 mph4.3 kmh 30.40 in1029.5 mb 0.11 in2.8 mm 1.32 in33.5 mm 0.11 in2.8 mm
11:00 AM 78.3°F25.7°C 68.1°F20.1°C 71% Calm Calm -- 30.40 in1029.5 mb 0.52 in13.2 mm 0.45 in11.4 mm 0.52 in13.2 mm
11:05 AM 76.1°F24.5°C 67.0°F19.4°C 73% 1.0 mph SSE1.6 kmh SSE 2.2 mph3.5 kmh 30.39 in1029.1 mb 0.76 in19.3 mm 2.88 in73.2 mm 0.76 in19.3 mm
11:10 AM 74.3°F23.5°C 67.1°F19.5°C 78% 0.2 mph E0.3 kmh E 1.7 mph2.7 kmh 30.39 in1029.1 mb 0.76 in19.3 mm 0.00 in0.0 mm 0.76 in19.3 mm
11:15 AM 74.2°F23.4°C 67.1°F19.5°C 79% 0.4 mph S0.6 kmh S 2.2 mph3.5 kmh 30.39 in1029.1 mb 0.76 in19.3 mm 0.00 in0.0 mm 0.76 in19.3 mm
11:20 AM 74.2°F23.4°C 67.5°F19.7°C 80% 0.5 mph S0.8 kmh S 1.7 mph2.7 kmh 30.39 in1029.1 mb 0.76 in19.3 mm 0.00 in0.0 mm 0.76 in19.3 mm
11:25 AM 74.3°F23.5°C 67.5°F19.7°C 79% 0.6 mph WSW1.0 kmh WSW 3.7 mph6.0 kmh 30.39 in1029.1 mb 0.76 in19.3 mm 0.00 in0.0 mm 0.76 in19.3 mm
11:30 AM 74.2°F23.4°C 67.6°F19.8°C 80% 1.3 mph SW2.1 kmh SW 3.7 mph6.0 kmh 30.39 in1029.1 mb 0.76 in19.3 mm 0.00 in0.0 mm 0.76 in19.3 mm
11:35 AM 74.6°F23.7°C 67.9°F19.9°C 80% 1.1 mph SSW1.8 kmh SSW 2.7 mph4.3 kmh 30.39 in1029.1 mb 0.76 in19.3 mm 0.00 in0.0 mm 0.76 in19.3 mm
11:40 AM 74.9°F23.8°C 67.9°F19.9°C 79% 1.1 mph SSW1.8 kmh SSW 2.7 mph4.3 kmh 30.39 in1029.1 mb 0.76 in19.3 mm 0.00 in0.0 mm 0.76 in19.3 mm
11:45 AM 75.2°F24.0°C 67.9°F19.9°C 78% 1.0 mph SSW1.6 kmh SSW 2.2 mph3.5 kmh 30.39 in1029.1 mb 0.76 in19.3 mm 0.00 in0.0 mm 0.76 in19.3 mm
11:50 AM 75.3°F24.1°C 67.9°F19.9°C 78% 1.4 mph SW2.3 kmh SW 2.7 mph4.3 kmh 30.39 in1029.1 mb 0.76 in19.3 mm 0.00 in0.0 mm 0.76 in19.3 mm
11:55 AM 74.9°F23.8°C 67.6°F19.8°C 78% 1.5 mph SW2.4 kmh SW 3.2 mph5.1 kmh 30.39 in1029.1 mb 0.65 in16.5 mm 0.00 in0.0 mm 0.76 in19.3 mm
12:00 PM 74.9°F23.8°C 67.6°F19.8°C 78% 1.6 mph SW2.6 kmh SW 2.7 mph4.3 kmh 30.39 in1029.1 mb 0.24 in6.1 mm 0.00 in0.0 mm 0.76 in19.3 mm
12:05 PM 74.9°F23.8°C 67.3°F19.6°C 77% 1.6 mph SW2.6 kmh SW 2.7 mph4.3 kmh 30.39 in1029.1 mb 0.00 in0.0 mm 0.00 in0.0 mm 0.76 in19.3 mm
12:10 PM 75.5°F24.2°C 67.8°F19.9°C 77% 0.8 mph SSW1.3 kmh SSW 1.7 mph2.7 kmh 30.39 in1029.1 mb 0.00 in0.0 mm 0.00 in0.0 mm 0.76 in19.3 mm
12:15 PM 75.6°F24.2°C 67.5°F19.7°C 76% 1.6 mph WSW2.6 kmh WSW 2.7 mph4.3 kmh 30.39 in1029.1 mb 0.00 in0.0 mm 0.00 in0.0 mm 0.76 in19.3 mm
12:20 PM 75.3°F24.1°C 67.5°F19.7°C 77% 1.3 mph WSW2.1 kmh WSW 2.2 mph3.5 kmh 30.39 in1029.1 mb 0.00 in0.0 mm 0.00 in0.0 mm 0.76 in19.3 mm
12:25 PM 75.5°F24.2°C 67.0°F19.4°C 75% 1.4 mph S2.3 kmh S 2.7 mph4.3 kmh 30.39 in1029.1 mb 0.00 in0.0 mm 0.00 in0.0 mm 0.76 in19.3 mm
12:30 PM 75.8°F24.3°C 67.6°F19.8°C 76% 1.5 mph S2.4 kmh S 2.7 mph4.3 kmh 30.39 in1029.1 mb 0.00 in0.0 mm 0.00 in0.0 mm 0.76 in19.3 mm
12:35 PM 76.0°F24.4°C 67.8°F19.9°C 76% 1.1 mph S1.8 kmh S 2.2 mph3.5 kmh 30.39 in1029.1 mb 0.00 in0.0 mm 0.00 in0.0 mm 0.76 in19.3 mm
12:40 PM 76.2°F24.6°C 67.8°F19.9°C 75% 1.4 mph S2.3 kmh S 2.7 mph4.3 kmh 30.38 in1028.8 mb 0.00 in0.0 mm 0.00 in0.0 mm 0.76 in19.3 mm
12:45 PM 76.0°F24.4°C 67.6°F19.8°C 75% 1.9 mph SW3.1 kmh SW 2.7 mph4.3 kmh 30.38 in1028.8 mb 0.00 in0.0 mm 0.00 in0.0 mm 0.76 in19.3 mm
12:50 PM 76.2°F24.6°C 68.1°F20.1°C 76% 1.0 mph S1.6 kmh S 1.7 mph2.7 kmh 30.38 in1028.8 mb 0.00 in0.0 mm 0.00 in0.0 mm 0.76 in19.3 mm
12:55 PM 76.6°F24.8°C 67.8°F19.9°C 74% 1.4 mph SW2.3 kmh SW 2.7 mph4.3 kmh 30.38 in1028.8 mb 0.00 in0.0 mm 0.00 in0.0 mm 0.76 in19.3 mm
01:00 PM 76.8°F24.9°C 68.1°F20.1°C 75% 1.3 mph WSW2.1 kmh WSW 3.7 mph6.0 kmh 30.38 in1028.8 mb 0.00 in0.0 mm 0.00 in0.0 mm 0.76 in19.3 mm
01:05 PM 76.6°F24.8°C 67.7°F19.8°C 74% 2.3 mph SW3.7 kmh SW 4.7 mph7.6 kmh 30.37 in1028.4 mb 0.00 in0.0 mm 0.00 in0.0 mm 0.76 in19.3 mm
01:10 PM 77.4°F25.2°C 68.4°F20.2°C 74% 1.8 mph WSW2.9 kmh WSW 3.2 mph5.1 kmh 30.37 in1028.4 mb 0.00 in0.0 mm 0.00 in0.0 mm 0.76 in19.3 mm
01:15 PM 77.3°F25.2°C 68.1°F20.1°C 73% 2.0 mph SW3.2 kmh SW 3.7 mph6.0 kmh 30.37 in1028.4 mb 0.00 in0.0 mm 0.00 in0.0 mm 0.76 in19.3 mm
01:20 PM 76.7°F24.8°C 67.7°F19.8°C 74% 2.0 mph SW3.2 kmh SW 3.2 mph5.1 kmh 30.37 in1028.4 mb 0.00 in0.0 mm 0.00 in0.0 mm 0.76 in19.3 mm
01:25 PM 77.5°F25.3°C 68.3°F20.2°C 73% 2.1 mph SW3.4 kmh SW 2.7 mph4.3 kmh 30.36 in1028.1 mb 0.00 in0.0 mm 0.00 in0.0 mm 0.76 in19.3 mm
01:30 PM 76.6°F24.8°C 67.9°F19.9°C 75% 1.9 mph SW3.1 kmh SW 3.7 mph6.0 kmh 30.36 in1028.1 mb 0.00 in0.0 mm 0.00 in0.0 mm 0.76 in19.3 mm
01:35 PM 75.9°F24.4°C 67.7°F19.8°C 76% 1.9 mph SW3.1 kmh SW 3.7 mph6.0 kmh 30.36 in1028.1 mb 0.00 in0.0 mm 0.00 in0.0 mm 0.76 in19.3 mm
01:40 PM 75.8°F24.3°C 68.0°F20.0°C 77% 1.8 mph SSW2.9 kmh SSW 2.7 mph4.3 kmh 30.36 in1028.1 mb 0.00 in0.0 mm 0.00 in0.0 mm 0.76 in19.3 mm
01:45 PM 75.6°F24.2°C 68.1°F20.1°C 78% 2.1 mph SSW3.4 kmh SSW 3.7 mph6.0 kmh 30.36 in1028.1 mb 0.00 in0.0 mm 0.00 in0.0 mm 0.76 in19.3 mm
01:50 PM 76.2°F24.6°C 68.5°F20.3°C 77% 0.8 mph SW1.3 kmh SW 1.7 mph2.7 kmh 30.36 in1028.1 mb 0.00 in0.0 mm 0.00 in0.0 mm 0.76 in19.3 mm
01:55 PM 76.8°F24.9°C 68.7°F20.4°C 76% 0.9 mph WSW1.4 kmh WSW 2.2 mph3.5 kmh 30.36 in1028.1 mb 0.00 in0.0 mm 0.00 in0.0 mm 0.76 in19.3 mm
02:00 PM 76.8°F24.9°C 68.7°F20.4°C 76% 1.4 mph WSW2.3 kmh WSW 2.7 mph4.3 kmh 30.36 in1028.1 mb 0.00 in0.0 mm 0.00 in0.0 mm 0.76 in19.3 mm
02:05 PM 77.5°F25.3°C 68.9°F20.5°C 75% 1.1 mph SSW1.8 kmh SSW 2.2 mph3.5 kmh 30.36 in1028.1 mb 0.00 in0.0 mm 0.00 in0.0 mm 0.76 in19.3 mm
02:10 PM 78.1°F25.6°C 69.1°F20.6°C 74% 1.4 mph SSE2.3 kmh SSE 2.2 mph3.5 kmh 30.36 in1028.1 mb 0.00 in0.0 mm 0.00 in0.0 mm 0.76 in19.3 mm
02:15 PM 78.5°F25.8°C 69.3°F20.7°C 74% 1.3 mph SSW2.1 kmh SSW 3.7 mph6.0 kmh 30.36 in1028.1 mb 0.00 in0.0 mm 0.00 in0.0 mm 0.76 in19.3 mm
02:20 PM 78.1°F25.6°C 68.7°F20.4°C 73% 2.0 mph SSW3.2 kmh SSW 3.7 mph6.0 kmh 30.36 in1028.1 mb 0.00 in0.0 mm 0.00 in0.0 mm 0.76 in19.3 mm
02:25 PM 78.5°F25.8°C 68.7°F20.4°C 72% 2.0 mph SSW3.2 kmh SSW 3.2 mph5.1 kmh 30.36 in1028.1 mb 0.00 in0.0 mm 0.00 in0.0 mm 0.76 in19.3 mm
02:30 PM 78.1°F25.6°C 68.1°F20.1°C 72% 2.7 mph SW4.3 kmh SW 4.7 mph7.6 kmh 30.35 in1027.8 mb 0.00 in0.0 mm 0.00 in0.0 mm 0.76 in19.3 mm
02:35 PM 78.6°F25.9°C 68.4°F20.2°C 71% 1.5 mph SW2.4 kmh SW 2.2 mph3.5 kmh 30.35 in1027.8 mb 0.00 in0.0 mm 0.00 in0.0 mm 0.76 in19.3 mm
02:40 PM 78.7°F25.9°C 68.7°F20.4°C 72% 1.5 mph SW2.4 kmh SW 3.2 mph5.1 kmh 30.35 in1027.8 mb 0.00 in0.0 mm 0.00 in0.0 mm 0.76 in19.3 mm
02:45 PM 78.9°F26.1°C 68.7°F20.4°C 71% 1.7 mph SW2.7 kmh SW 2.7 mph4.3 kmh 30.35 in1027.8 mb 0.00 in0.0 mm 0.00 in0.0 mm 0.76 in19.3 mm
02:50 PM 78.1°F25.6°C 68.1°F20.1°C 71% 1.8 mph SW2.9 kmh SW 3.2 mph5.1 kmh 30.35 in1027.8 mb 0.00 in0.0 mm 0.00 in0.0 mm 0.76 in19.3 mm
02:55 PM 78.3°F25.7°C 68.1°F20.1°C 71% 1.3 mph WSW2.1 kmh WSW 2.2 mph3.5 kmh 30.35 in1027.8 mb 0.00 in0.0 mm 0.00 in0.0 mm 0.76 in19.3 mm
03:00 PM 78.4°F25.8°C 68.1°F20.1°C 71% 1.5 mph S2.4 kmh S 2.2 mph3.5 kmh 30.35 in1027.8 mb 0.00 in0.0 mm 0.00 in0.0 mm 0.76 in19.3 mm
03:05 PM 78.3°F25.7°C 68.1°F20.1°C 71% 1.8 mph SSW2.9 kmh SSW 3.2 mph5.1 kmh 30.35 in1027.8 mb 0.00 in0.0 mm 0.00 in0.0 mm 0.76 in19.3 mm
03:10 PM 78.0°F25.6°C 68.0°F20.0°C 72% 1.2 mph SSW1.9 kmh SSW 2.2 mph3.5 kmh 30.35 in1027.8 mb 0.00 in0.0 mm 0.00 in0.0 mm 0.76 in19.3 mm
03:15 PM 77.4°F25.2°C 67.7°F19.8°C 72% 2.0 mph SSW3.2 kmh SSW 3.7 mph6.0 kmh 30.35 in1027.8 mb 0.00 in0.0 mm 0.00 in0.0 mm 0.76 in19.3 mm
03:20 PM 77.3°F25.2°C 67.8°F19.9°C 73% 1.7 mph S2.7 kmh S 2.7 mph4.3 kmh 30.35 in1027.8 mb 0.00 in0.0 mm 0.00 in0.0 mm 0.76 in19.3 mm
03:25 PM 77.4°F25.2°C 68.2°F20.1°C 73% 1.8 mph S2.9 kmh S 2.7 mph4.3 kmh 30.35 in1027.8 mb 0.00 in0.0 mm 0.00 in0.0 mm 0.76 in19.3 mm
03:30 PM 77.0°F25.0°C 67.8°F19.9°C 74% 1.7 mph SSE2.7 kmh SSE 2.2 mph3.5 kmh 30.34 in1027.4 mb 0.00 in0.0 mm 0.00 in0.0 mm 0.76 in19.3 mm
03:35 PM 76.4°F24.7°C 68.2°F20.1°C 76% 1.3 mph SW2.1 kmh SW 2.2 mph3.5 kmh 30.34 in1027.4 mb 0.00 in0.0 mm 0.00 in0.0 mm 0.76 in19.3 mm
03:40 PM 76.3°F24.6°C 68.0°F20.0°C 76% 1.6 mph SSW2.6 kmh SSW 2.7 mph4.3 kmh 30.34 in1027.4 mb 0.00 in0.0 mm 0.00 in0.0 mm 0.76 in19.3 mm
03:45 PM 76.5°F24.7°C 68.3°F20.2°C 76% 1.2 mph S1.9 kmh S 2.7 mph4.3 kmh 30.34 in1027.4 mb 0.00 in0.0 mm 0.00 in0.0 mm 0.76 in19.3 mm
03:50 PM 75.9°F24.4°C 67.5°F19.7°C 75% 2.1 mph SW3.4 kmh SW 3.7 mph6.0 kmh 30.34 in1027.4 mb 0.00 in0.0 mm 0.00 in0.0 mm 0.76 in19.3 mm
03:55 PM 76.0°F24.4°C 67.9°F19.9°C 76% 1.2 mph SW1.9 kmh SW 2.2 mph3.5 kmh 30.34 in1027.4 mb 0.00 in0.0 mm 0.00 in0.0 mm 0.76 in19.3 mm
04:00 PM 75.8°F24.3°C 68.1°F20.1°C 77% 1.5 mph S2.4 kmh S 2.7 mph4.3 kmh 30.34 in1027.4 mb 0.00 in0.0 mm 0.00 in0.0 mm 0.76 in19.3 mm
04:05 PM 75.7°F24.3°C 67.6°F19.8°C 76% 1.5 mph S2.4 kmh S 3.2 mph5.1 kmh 30.35 in1027.8 mb 0.00 in0.0 mm 0.00 in0.0 mm 0.76 in19.3 mm
04:10 PM 75.6°F24.2°C 67.4°F19.7°C 76% 1.5 mph SSW2.4 kmh SSW 3.2 mph5.1 kmh 30.35 in1027.8 mb 0.00 in0.0 mm 0.00 in0.0 mm 0.76 in19.3 mm
04:15 PM 75.4°F24.1°C 67.3°F19.6°C 76% 1.8 mph SW2.9 kmh SW 2.7 mph4.3 kmh 30.34 in1027.4 mb 0.00 in0.0 mm 0.00 in0.0 mm 0.76 in19.3 mm
04:20 PM 75.2°F24.0°C 66.9°F19.4°C 75% 1.8 mph SW2.9 kmh SW 3.7 mph6.0 kmh 30.34 in1027.4 mb 0.00 in0.0 mm 0.00 in0.0 mm 0.76 in19.3 mm
04:25 PM 75.1°F23.9°C 67.1°F19.5°C 76% 1.3 mph S2.1 kmh S 2.2 mph3.5 kmh 30.34 in1027.4 mb 0.00 in0.0 mm 0.00 in0.0 mm 0.76 in19.3 mm
04:30 PM 75.3°F24.1°C 67.4°F19.7°C 77% 1.3 mph S2.1 kmh S 2.7 mph4.3 kmh 30.34 in1027.4 mb 0.00 in0.0 mm 0.00 in0.0 mm 0.76 in19.3 mm
04:35 PM 75.4°F24.1°C 67.3°F19.6°C 76% 2.1 mph SSW3.4 kmh SSW 3.2 mph5.1 kmh 30.34 in1027.4 mb 0.00 in0.0 mm 0.00 in0.0 mm 0.76 in19.3 mm
04:40 PM 75.6°F24.2°C 67.7°F19.8°C 77% 1.9 mph S3.1 kmh S 2.7 mph4.3 kmh 30.34 in1027.4 mb 0.00 in0.0 mm 0.00 in0.0 mm 0.76 in19.3 mm
04:45 PM 75.1°F23.9°C 67.7°F19.8°C 78% 1.5 mph S2.4 kmh S 2.7 mph4.3 kmh 30.33 in1027.1 mb 0.00 in0.0 mm 0.00 in0.0 mm 0.76 in19.3 mm
04:50 PM 74.8°F23.8°C 67.7°F19.8°C 79% 1.5 mph S2.4 kmh S 2.7 mph4.3 kmh 30.33 in1027.1 mb 0.00 in0.0 mm 0.00 in0.0 mm 0.76 in19.3 mm
04:55 PM 74.7°F23.7°C 67.7°F19.8°C 79% 1.8 mph WSW2.9 kmh WSW 2.7 mph4.3 kmh 30.33 in1027.1 mb 0.00 in0.0 mm 0.00 in0.0 mm 0.76 in19.3 mm
05:00 PM 74.5°F23.6°C 67.6°F19.8°C 79% 2.0 mph S3.2 kmh S 2.7 mph4.3 kmh 30.33 in1027.1 mb 0.00 in0.0 mm 0.00 in0.0 mm 0.76 in19.3 mm
05:05 PM 74.4°F23.6°C 68.0°F20.0°C 80% 1.5 mph SW2.4 kmh SW 2.7 mph4.3 kmh 30.33 in1027.1 mb 0.00 in0.0 mm 0.00 in0.0 mm 0.76 in19.3 mm
05:10 PM 74.6°F23.7°C 68.1°F20.1°C 80% 1.5 mph S2.4 kmh S 2.2 mph3.5 kmh 30.33 in1027.1 mb 0.00 in0.0 mm 0.00 in0.0 mm 0.76 in19.3 mm
05:15 PM 74.6°F23.7°C 68.1°F20.1°C 80% 1.8 mph SW2.9 kmh SW 3.2 mph5.1 kmh 30.33 in1027.1 mb 0.00 in0.0 mm 0.00 in0.0 mm 0.76 in19.3 mm
05:20 PM 74.1°F23.4°C 68.2°F20.1°C 82% 1.6 mph SW2.6 kmh SW 2.2 mph3.5 kmh 30.33 in1027.1 mb 0.00 in0.0 mm 0.00 in0.0 mm 0.76 in19.3 mm
05:25 PM 73.9°F23.3°C 68.1°F20.1°C 82% 1.8 mph SW2.9 kmh SW 3.2 mph5.1 kmh 30.32 in1026.8 mb 0.00 in0.0 mm 0.00 in0.0 mm 0.76 in19.3 mm
05:30 PM 73.6°F23.1°C 68.2°F20.1°C 83% 2.1 mph SW3.4 kmh SW 3.7 mph6.0 kmh 30.32 in1026.8 mb 0.00 in0.0 mm 0.00 in0.0 mm 0.76 in19.3 mm
05:35 PM 73.2°F22.9°C 68.0°F20.0°C 84% 1.6 mph S2.6 kmh S 2.7 mph4.3 kmh 30.32 in1026.8 mb 0.00 in0.0 mm 0.00 in0.0 mm 0.76 in19.3 mm
05:40 PM 73.0°F22.8°C 67.9°F19.9°C 84% 1.5 mph SW2.4 kmh SW 2.7 mph4.3 kmh 30.32 in1026.8 mb 0.00 in0.0 mm 0.00 in0.0 mm 0.76 in19.3 mm
05:45 PM 72.9°F22.7°C 67.8°F19.9°C 84% 1.9 mph SW3.1 kmh SW 2.7 mph4.3 kmh 30.32 in1026.8 mb 0.00 in0.0 mm 0.00 in0.0 mm 0.76 in19.3 mm
05:50 PM 72.7°F22.6°C 67.9°F19.9°C 85% 1.3 mph S2.1 kmh S 2.7 mph4.3 kmh 30.32 in1026.8 mb 0.00 in0.0 mm 0.00 in0.0 mm 0.76 in19.3 mm
05:55 PM 72.5°F22.5°C 67.8°F19.9°C 85% 0.6 mph SW1.0 kmh SW 2.2 mph3.5 kmh 30.32 in1026.8 mb 0.00 in0.0 mm 0.00 in0.0 mm 0.76 in19.3 mm
06:00 PM 72.3°F22.4°C 67.6°F19.8°C 85% 0.9 mph WSW1.4 kmh WSW 2.2 mph3.5 kmh 30.32 in1026.8 mb 0.00 in0.0 mm 0.00 in0.0 mm 0.76 in19.3 mm
06:05 PM 72.2°F22.3°C 67.7°F19.8°C 86% 0.6 mph SW1.0 kmh SW 1.7 mph2.7 kmh 30.33 in1027.1 mb 0.00 in0.0 mm 0.00 in0.0 mm 0.76 in19.3 mm
06:10 PM 72.0°F22.2°C 67.6°F19.8°C 86% 1.0 mph SW1.6 kmh SW 2.7 mph4.3 kmh 30.33 in1027.1 mb 0.00 in0.0 mm 0.00 in0.0 mm 0.76 in19.3 mm
06:15 PM 72.0°F22.2°C 67.7°F19.8°C 86% 0.8 mph WSW1.3 kmh WSW 3.2 mph5.1 kmh 30.32 in1026.8 mb 0.00 in0.0 mm 0.00 in0.0 mm 0.76 in19.3 mm
06:20 PM 71.8°F22.1°C 67.7°F19.8°C 87% 0.8 mph SW1.3 kmh SW 2.2 mph3.5 kmh 30.32 in1026.8 mb 0.00 in0.0 mm 0.00 in0.0 mm 0.76 in19.3 mm
06:25 PM 71.6°F22.0°C 67.8°F19.9°C 88% 1.2 mph SW1.9 kmh SW 2.7 mph4.3 kmh 30.32 in1026.8 mb 0.00 in0.0 mm 0.00 in0.0 mm 0.76 in19.3 mm
06:30 PM 71.5°F21.9°C 67.7°F19.8°C 88% 0.5 mph WSW0.8 kmh WSW 1.7 mph2.7 kmh 30.32 in1026.8 mb 0.00 in0.0 mm 0.00 in0.0 mm 0.76 in19.3 mm
06:35 PM 71.4°F21.9°C 67.8°F19.9°C 88% 0.8 mph SW1.3 kmh SW 1.7 mph2.7 kmh 30.32 in1026.8 mb 0.00 in0.0 mm 0.00 in0.0 mm 0.76 in19.3 mm
06:40 PM 71.2°F21.8°C 67.8°F19.9°C 89% 1.0 mph SSW1.6 kmh SSW 2.2 mph3.5 kmh 30.32 in1026.8 mb 0.00 in0.0 mm 0.00 in0.0 mm 0.76 in19.3 mm
06:45 PM 71.2°F21.8°C 67.8°F19.9°C 89% 0.8 mph SW1.3 kmh SW 1.7 mph2.7 kmh 30.32 in1026.8 mb 0.00 in0.0 mm 0.00 in0.0 mm 0.76 in19.3 mm
06:50 PM 71.2°F21.8°C 67.8°F19.9°C 89% 0.9 mph SW1.4 kmh SW 1.7 mph2.7 kmh 30.32 in1026.8 mb 0.00 in0.0 mm 0.00 in0.0 mm 0.76 in19.3 mm
06:55 PM 71.1°F21.7°C 67.7°F19.8°C 89% 1.2 mph SW1.9 kmh SW 2.7 mph4.3 kmh 30.32 in1026.8 mb 0.00 in0.0 mm 0.00 in0.0 mm 0.76 in19.3 mm
07:00 PM 71.1°F21.7°C 67.7°F19.8°C 89% 1.0 mph SSW1.6 kmh SSW 2.2 mph3.5 kmh 30.32 in1026.8 mb 0.00 in0.0 mm 0.00 in0.0 mm 0.76 in19.3 mm
07:05 PM 71.1°F21.7°C 67.7°F19.8°C 89% 1.4 mph WSW2.3 kmh WSW 2.7 mph4.3 kmh 30.32 in1026.8 mb 0.00 in0.0 mm 0.00 in0.0 mm 0.76 in19.3 mm
07:10 PM 71.1°F21.7°C 67.7°F19.8°C 89% 1.0 mph SSW1.6 kmh SSW 2.2 mph3.5 kmh 30.32 in1026.8 mb 0.00 in0.0 mm 0.00 in0.0 mm 0.76 in19.3 mm
07:15 PM 71.1°F21.7°C 67.7°F19.8°C 89% 1.6 mph SW2.6 kmh SW 3.2 mph5.1 kmh 30.32 in1026.8 mb 0.00 in0.0 mm 0.00 in0.0 mm 0.76 in19.3 mm
07:20 PM 71.1°F21.7°C 67.7°F19.8°C 89% 1.3 mph S2.1 kmh S 2.7 mph4.3 kmh 30.32 in1026.8 mb 0.00 in0.0 mm 0.00 in0.0 mm 0.76 in19.3 mm
07:25 PM 71.0°F21.7°C 67.8°F19.9°C 90% 1.1 mph S1.8 kmh S 3.2 mph5.1 kmh 30.32 in1026.8 mb 0.00 in0.0 mm 0.00 in0.0 mm 0.76 in19.3 mm
07:30 PM 70.9°F21.6°C 67.8°F19.9°C 90% 1.3 mph S2.1 kmh S 2.7 mph4.3 kmh 30.32 in1026.8 mb 0.00 in0.0 mm 0.00 in0.0 mm 0.76 in19.3 mm
07:35 PM 70.9°F21.6°C 67.8°F19.9°C 90% 1.9 mph SW3.1 kmh SW 3.2 mph5.1 kmh 30.32 in1026.8 mb 0.00 in0.0 mm 0.00 in0.0 mm 0.76 in19.3 mm
07:40 PM 70.9°F21.6°C 67.8°F19.9°C 90% 2.1 mph WSW3.4 kmh WSW 3.2 mph5.1 kmh 30.32 in1026.8 mb 0.00 in0.0 mm 0.00 in0.0 mm 0.76 in19.3 mm
07:45 PM 70.9°F21.6°C 67.8°F19.9°C 90% 1.9 mph WSW3.1 kmh WSW 3.2 mph5.1 kmh 30.32 in1026.8 mb 0.00 in0.0 mm 0.00 in0.0 mm 0.76 in19.3 mm
07:50 PM 70.9°F21.6°C 67.8°F19.9°C 90% 1.7 mph SW2.7 kmh SW 3.2 mph5.1 kmh 30.32 in1026.8 mb 0.00 in0.0 mm 0.00 in0.0 mm 0.76 in19.3 mm
07:55 PM 70.9°F21.6°C 67.8°F19.9°C 90% 1.6 mph WSW2.6 kmh WSW 3.7 mph6.0 kmh 30.32 in1026.8 mb 0.00 in0.0 mm 0.00 in0.0 mm 0.76 in19.3 mm
08:00 PM 70.9°F21.6°C 67.8°F19.9°C 90% 1.3 mph SSW2.1 kmh SSW 2.7 mph4.3 kmh 30.32 in1026.8 mb 0.00 in0.0 mm 0.00 in0.0 mm 0.76 in19.3 mm
08:05 PM 70.9°F21.6°C 67.8°F19.9°C 90% 1.9 mph SSW3.1 kmh SSW 3.7 mph6.0 kmh 30.32 in1026.8 mb 0.00 in0.0 mm 0.00 in0.0 mm 0.76 in19.3 mm
08:10 PM 70.9°F21.6°C 67.8°F19.9°C 90% 2.0 mph SW3.2 kmh SW 2.7 mph4.3 kmh 30.32 in1026.8 mb 0.00 in0.0 mm 0.00 in0.0 mm 0.76 in19.3 mm
08:15 PM 70.9°F21.6°C 68.0°F20.0°C 91% 1.3 mph SW2.1 kmh SW 2.2 mph3.5 kmh 30.31 in1026.4 mb 0.00 in0.0 mm 0.00 in0.0 mm 0.76 in19.3 mm
08:20 PM 70.7°F21.5°C 68.0°F20.0°C 91% 1.7 mph S2.7 kmh S 2.7 mph4.3 kmh 30.31 in1026.4 mb 0.00 in0.0 mm 0.00 in0.0 mm 0.76 in19.3 mm
08:25 PM 70.7°F21.5°C 67.9°F19.9°C 91% 1.6 mph WSW2.6 kmh WSW 2.7 mph4.3 kmh 30.31 in1026.4 mb 0.00 in0.0 mm 0.00 in0.0 mm 0.76 in19.3 mm
08:30 PM 70.7°F21.5°C 67.9°F19.9°C 91% 1.5 mph WSW2.4 kmh WSW 2.7 mph4.3 kmh 30.31 in1026.4 mb 0.00 in0.0 mm 0.00 in0.0 mm 0.76 in19.3 mm
08:35 PM 70.7°F21.5°C 67.9°F19.9°C 91% 2.0 mph SW3.2 kmh SW 3.2 mph5.1 kmh 30.31 in1026.4 mb 0.00 in0.0 mm 0.00 in0.0 mm 0.76 in19.3 mm
08:40 PM 70.7°F21.5°C 67.9°F19.9°C 91% 1.7 mph SW2.7 kmh SW 3.7 mph6.0 kmh 30.31 in1026.4 mb 0.00 in0.0 mm 0.00 in0.0 mm 0.76 in19.3 mm
08:45 PM 70.6°F21.4°C 67.8°F19.9°C 91% 2.1 mph SSW3.4 kmh SSW 4.2 mph6.8 kmh 30.31 in1026.4 mb 0.00 in0.0 mm 0.00 in0.0 mm 0.76 in19.3 mm
08:50 PM 70.5°F21.4°C 67.7°F19.8°C 91% 1.9 mph SSW3.1 kmh SSW 2.7 mph4.3 kmh 30.32 in1026.8 mb 0.00 in0.0 mm 0.00 in0.0 mm 0.76 in19.3 mm
08:55 PM 70.5°F21.4°C 67.7°F19.8°C 91% 2.0 mph SW3.2 kmh SW 4.7 mph7.6 kmh 30.32 in1026.8 mb 0.00 in0.0 mm 0.00 in0.0 mm 0.76 in19.3 mm
09:00 PM 70.5°F21.4°C 67.7°F19.8°C 91% 1.5 mph SW2.4 kmh SW 2.7 mph4.3 kmh 30.32 in1026.8 mb 0.00 in0.0 mm 0.00 in0.0 mm 0.76 in19.3 mm
09:05 PM 70.5°F21.4°C 67.7°F19.8°C 91% 2.4 mph SW3.9 kmh SW 5.3 mph8.5 kmh 30.32 in1026.8 mb 0.00 in0.0 mm 0.00 in0.0 mm 0.76 in19.3 mm
09:10 PM 70.5°F21.4°C 67.7°F19.8°C 91% 1.9 mph SSW3.1 kmh SSW 3.2 mph5.1 kmh 30.32 in1026.8 mb 0.00 in0.0 mm 0.00 in0.0 mm 0.76 in19.3 mm
09:15 PM 70.5°F21.4°C 67.7°F19.8°C 91% 3.0 mph SW4.8 kmh SW 4.2 mph6.8 kmh 30.32 in1026.8 mb 0.00 in0.0 mm 0.00 in0.0 mm 0.76 in19.3 mm
09:20 PM 70.5°F21.4°C 67.7°F19.8°C 91% 2.7 mph SW4.3 kmh SW 4.2 mph6.8 kmh 30.32 in1026.8 mb 0.00 in0.0 mm 0.00 in0.0 mm 0.76 in19.3 mm
09:25 PM 70.5°F21.4°C 67.7°F19.8°C 91% 2.5 mph S4.0 kmh S 5.3 mph8.5 kmh 30.32 in1026.8 mb 0.00 in0.0 mm 0.00 in0.0 mm 0.76 in19.3 mm
09:30 PM 70.5°F21.4°C 67.7°F19.8°C 91% 2.8 mph SSW4.5 kmh SSW 4.2 mph6.8 kmh 30.31 in1026.4 mb 0.00 in0.0 mm 0.00 in0.0 mm 0.76 in19.3 mm
09:35 PM 70.5°F21.4°C 67.8°F19.9°C 91% 2.5 mph SSW4.0 kmh SSW 4.7 mph7.6 kmh 30.31 in1026.4 mb 0.00 in0.0 mm 0.00 in0.0 mm 0.76 in19.3 mm
09:40 PM 70.5°F21.4°C 68.1°F20.1°C 92% 1.9 mph SW3.1 kmh SW 4.2 mph6.8 kmh 30.31 in1026.4 mb 0.00 in0.0 mm 0.00 in0.0 mm 0.76 in19.3 mm
09:45 PM 70.5°F21.4°C 68.1°F20.1°C 92% 2.1 mph SSW3.4 kmh SSW 3.2 mph5.1 kmh 30.31 in1026.4 mb 0.00 in0.0 mm 0.00 in0.0 mm 0.76 in19.3 mm
09:50 PM 70.5°F21.4°C 68.1°F20.1°C 92% 2.3 mph SSW3.7 kmh SSW 4.2 mph6.8 kmh 30.31 in1026.4 mb 0.00 in0.0 mm 0.00 in0.0 mm 0.76 in19.3 mm
09:55 PM 70.5°F21.4°C 68.1°F20.1°C 92% 3.2 mph SW5.1 kmh SW 5.8 mph9.3 kmh 30.30 in1026.1 mb 0.00 in0.0 mm 0.00 in0.0 mm 0.76 in19.3 mm
10:00 PM 70.5°F21.4°C 68.1°F20.1°C 92% 2.1 mph SW3.4 kmh SW 3.7 mph6.0 kmh 30.30 in1026.1 mb 0.00 in0.0 mm 0.00 in0.0 mm 0.76 in19.3 mm
10:05 PM 70.5°F21.4°C 68.1°F20.1°C 92% 3.0 mph SW4.8 kmh SW 5.3 mph8.5 kmh 30.31 in1026.4 mb 0.00 in0.0 mm 0.00 in0.0 mm 0.76 in19.3 mm
10:10 PM 70.5°F21.4°C 68.0°F20.0°C 92% 2.2 mph SW3.5 kmh SW 3.7 mph6.0 kmh 30.31 in1026.4 mb 0.00 in0.0 mm 0.00 in0.0 mm 0.76 in19.3 mm
10:15 PM 70.3°F21.3°C 68.2°F20.1°C 93% 3.4 mph SW5.5 kmh SW 5.8 mph9.3 kmh 30.30 in1026.1 mb 0.00 in0.0 mm 0.00 in0.0 mm 0.76 in19.3 mm
10:20 PM 70.3°F21.3°C 68.2°F20.1°C 93% 2.1 mph SW3.4 kmh SW 4.7 mph7.6 kmh 30.30 in1026.1 mb 0.00 in0.0 mm 0.00 in0.0 mm 0.76 in19.3 mm
10:25 PM 70.3°F21.3°C 68.2°F20.1°C 93% 3.2 mph SW5.1 kmh SW 6.8 mph10.9 kmh 30.30 in1026.1 mb 0.00 in0.0 mm 0.00 in0.0 mm 0.76 in19.3 mm
10:30 PM 70.3°F21.3°C 68.2°F20.1°C 93% 2.8 mph WSW4.5 kmh WSW 4.2 mph6.8 kmh 30.30 in1026.1 mb 0.00 in0.0 mm 0.00 in0.0 mm 0.76 in19.3 mm
10:35 PM 70.3°F21.3°C 68.2°F20.1°C 93% 2.3 mph SW3.7 kmh SW 3.7 mph6.0 kmh 30.30 in1026.1 mb 0.00 in0.0 mm 0.00 in0.0 mm 0.76 in19.3 mm
10:40 PM 70.3°F21.3°C 68.2°F20.1°C 93% 2.6 mph SW4.2 kmh SW 5.8 mph9.3 kmh 30.30 in1026.1 mb 0.00 in0.0 mm 0.00 in0.0 mm 0.76 in19.3 mm
10:45 PM 70.3°F21.3°C 68.2°F20.1°C 93% 3.5 mph SW5.6 kmh SW 5.3 mph8.5 kmh 30.30 in1026.1 mb 0.00 in0.0 mm 0.00 in0.0 mm 0.76 in19.3 mm
10:50 PM 70.3°F21.3°C 68.1°F20.1°C 93% 2.9 mph SSW4.7 kmh SSW 6.8 mph10.9 kmh 30.30 in1026.1 mb 0.00 in0.0 mm 0.00 in0.0 mm 0.76 in19.3 mm
10:55 PM 70.3°F21.3°C 67.9°F19.9°C 92% 3.2 mph SW5.1 kmh SW 5.8 mph9.3 kmh 30.30 in1026.1 mb 0.00 in0.0 mm 0.00 in0.0 mm 0.76 in19.3 mm
11:00 PM 70.3°F21.3°C 67.9°F19.9°C 92% 3.0 mph SW4.8 kmh SW 5.3 mph8.5 kmh 30.30 in1026.1 mb 0.00 in0.0 mm 0.00 in0.0 mm 0.76 in19.3 mm
11:05 PM 70.3°F21.3°C 67.9°F19.9°C 92% 2.6 mph SW4.2 kmh SW 4.7 mph7.6 kmh 30.30 in1026.1 mb 0.00 in0.0 mm 0.00 in0.0 mm 0.76 in19.3 mm
11:10 PM 70.3°F21.3°C 67.9°F19.9°C 92% 2.4 mph SW3.9 kmh SW 4.7 mph7.6 kmh 30.30 in1026.1 mb 0.00 in0.0 mm 0.00 in0.0 mm 0.76 in19.3 mm
11:15 PM 70.3°F21.3°C 67.9°F19.9°C 92% 3.3 mph SW5.3 kmh SW 5.3 mph8.5 kmh 30.30 in1026.1 mb 0.00 in0.0 mm 0.00 in0.0 mm 0.76 in19.3 mm
11:20 PM 70.3°F21.3°C 67.9°F19.9°C 92% 2.8 mph WSW4.5 kmh WSW 4.2 mph6.8 kmh 30.29 in1025.7 mb 0.00 in0.0 mm 0.00 in0.0 mm 0.76 in19.3 mm
11:25 PM 70.3°F21.3°C 67.9°F19.9°C 92% 2.2 mph SW3.5 kmh SW 3.7 mph6.0 kmh 30.29 in1025.7 mb 0.00 in0.0 mm 0.00 in0.0 mm 0.76 in19.3 mm
11:30 PM 70.3°F21.3°C 67.9°F19.9°C 92% 2.9 mph SW4.7 kmh SW 5.3 mph8.5 kmh 30.29 in1025.7 mb 0.00 in0.0 mm 0.00 in0.0 mm 0.76 in19.3 mm
11:35 PM 70.3°F21.3°C 67.9°F19.9°C 92% 2.7 mph SW4.3 kmh SW 4.7 mph7.6 kmh 30.29 in1025.7 mb 0.00 in0.0 mm 0.00 in0.0 mm 0.76 in19.3 mm
11:40 PM 70.3°F21.3°C 67.9°F19.9°C 92% 2.4 mph SW3.9 kmh SW 5.3 mph8.5 kmh 30.29 in1025.7 mb 0.00 in0.0 mm 0.00 in0.0 mm 0.76 in19.3 mm
11:45 PM 70.3°F21.3°C 67.9°F19.9°C 92% 2.7 mph WSW4.3 kmh WSW 4.7 mph7.6 kmh 30.29 in1025.7 mb 0.00 in0.0 mm 0.00 in0.0 mm 0.76 in19.3 mm
11:50 PM 70.3°F21.3°C 67.9°F19.9°C 92% 3.0 mph SW4.8 kmh SW 5.3 mph8.5 kmh 30.29 in1025.7 mb 0.00 in0.0 mm 0.00 in0.0 mm 0.76 in19.3 mm
11:55 PM 70.3°F21.3°C 67.9°F19.9°C 92% 3.0 mph SW4.8 kmh SW 5.8 mph9.3 kmh 30.29 in1025.7 mb 0.00 in0.0 mm 0.00 in0.0 mm 0.76 in19.3 mm